Time;durP1;ratioP1;P1;durP2;ratioP2;P2;SDS_P1;SDS_P2;PMS_P1;PMS_P2;Temp;Humidity;BMP_temperature;BMP_pressure;BME280_temperature;BME280_humidity;BME280_pressure;Samples;Min_cycle;Max_cycle;Signal;HPM_P1;HPM_P2
2022/01/19 00:01:34;;;;;;;3.90;2.03;;;;;;;-7.64;69.98;99925.88;4997421;28;20173;-84
2022/01/19 00:04:02;;;;;;;7.57;2.60;;;;;;;-7.75;69.93;99886.13;4998083;28;20050;-84
2022/01/19 00:06:29;;;;;;;3.47;1.90;;;;;;;-7.65;69.88;99901.28;5014532;28;20428;-83
2022/01/19 00:08:56;;;;;;;6.45;2.65;;;;;;;-7.70;69.77;99899.16;5015241;28;20567;-81
2022/01/19 00:11:23;;;;;;;7.85;2.50;;;;;;;-7.60;70.09;99913.44;5013858;28;20096;-86
2022/01/19 00:13:51;;;;;;;5.35;2.55;;;;;;;-7.70;70.13;99900.06;5010528;28;20496;-85
2022/01/19 00:16:20;;;;;;;5.85;2.63;;;;;;;-7.63;70.15;99892.13;5018452;28;20053;-83
2022/01/19 00:18:48;;;;;;;5.88;2.63;;;;;;;-7.58;69.62;99896.66;5018273;28;20515;-82
2022/01/19 00:21:15;;;;;;;3.50;2.35;;;;;;;-7.58;69.93;99891.59;5018608;28;20088;-87
2022/01/19 00:23:42;;;;;;;3.60;2.20;;;;;;;-7.58;69.93;99905.16;5002633;28;20479;-86
2022/01/19 00:26:10;;;;;;;3.47;2.08;;;;;;;-7.68;69.84;99896.00;5020576;28;20057;-85
2022/01/19 00:28:37;;;;;;;5.85;2.40;;;;;;;-7.75;69.82;99901.34;4989085;28;20520;-84
2022/01/19 00:31:04;;;;;;;4.32;2.40;;;;;;;-7.78;70.07;99880.84;5002391;28;20096;-84
2022/01/19 00:33:31;;;;;;;5.25;2.20;;;;;;;-7.82;69.91;99887.31;5001669;28;20503;-81
2022/01/19 00:35:59;;;;;;;4.50;2.30;;;;;;;-7.77;70.60;99914.69;5018903;28;20062;-83
2022/01/19 00:38:26;;;;;;;4.03;2.47;;;;;;;-7.75;69.93;99901.34;4965078;28;20141;-84
2022/01/19 00:40:55;;;;;;;4.30;2.20;;;;;;;-7.76;70.15;99909.72;5013832;28;20065;-84
2022/01/19 00:43:22;;;;;;;5.65;2.50;;;;;;;-7.69;70.39;99911.97;5014336;28;20053;-84
2022/01/19 00:45:50;;;;;;;5.00;2.50;;;;;;;-7.70;70.20;99902.59;4996996;28;20140;-86
2022/01/19 00:48:26;;;;;;;3.00;1.88;;;;;;;-7.65;70.04;99915.63;4997933;28;20081;-83
2022/01/19 00:50:54;;;;;;;2.97;1.88;;;;;;;-7.59;70.03;99915.19;4992427;28;20053;-81
2022/01/19 00:53:21;;;;;;;7.50;2.33;;;;;;;-7.55;70.32;99925.72;5013892;28;20052;-84
2022/01/19 00:55:48;;;;;;;4.55;2.88;;;;;;;-7.67;70.47;99884.19;5013844;28;20069;-84
2022/01/19 00:58:17;;;;;;;5.25;2.28;;;;;;;-7.55;70.04;99905.41;5014098;28;20057;-83
2022/01/19 01:00:43;;;;;;;8.00;2.50;;;;;;;-7.49;70.13;99902.44;5013361;28;20058;-86
2022/01/19 01:03:11;;;;;;;5.15;2.22;;;;;;;-7.56;70.21;99883.31;4995776;28;20411;-84
2022/01/19 01:05:38;;;;;;;4.43;2.35;;;;;;;-7.49;70.18;99892.28;4980190;28;20419;-81
2022/01/19 01:08:05;;;;;;;3.85;2.17;;;;;;;-7.51;70.06;99884.53;4996600;28;20061;-84
2022/01/19 01:10:41;;;;;;;4.30;2.17;;;;;;;-7.50;70.36;99873.63;5013890;28;20061;-84
2022/01/19 01:13:30;;;;;;;5.18;2.40;;;;;;;-7.49;70.03;99880.47;4981044;28;20054;-80
2022/01/19 01:16:03;;;;;;;3.67;2.40;;;;;;;-7.62;70.12;99863.44;5004793;28;20045;-80
2022/01/19 01:18:33;;;;;;;3.25;1.83;;;;;;;-7.44;70.29;99893.53;4980378;28;20132;-81
2022/01/19 01:21:02;;;;;;;6.97;2.80;;;;;;;-7.42;70.16;99894.50;5013528;28;20068;-82
2022/01/19 01:23:32;;;;;;;3.03;2.20;;;;;;;-7.34;70.36;99888.34;5013482;28;20060;-86
2022/01/19 01:26:00;;;;;;;5.13;2.15;;;;;;;-7.32;70.01;99888.47;4995976;28;20081;-85
2022/01/19 01:28:27;;;;;;;5.18;2.10;;;;;;;-7.36;70.15;99881.38;4997208;28;20503;-85
2022/01/19 01:30:55;;;;;;;4.80;2.42;;;;;;;-7.27;70.29;99888.03;4963231;28;20081;-83
2022/01/19 01:33:22;;;;;;;6.75;2.63;;;;;;;-7.42;70.27;99870.03;5014277;28;20107;-83
2022/01/19 01:35:50;;;;;;;4.53;2.55;;;;;;;-7.26;69.73;99887.25;4996268;28;20104;-85
2022/01/19 01:38:19;;;;;;;;;;;;;;;-7.37;70.39;99882.19;4991915;28;20101;-84
2022/01/19 01:41:09;;;;;;;4.10;2.33;;;;;;;-7.43;70.12;99880.94;4992497;28;20032;-85
2022/01/19 01:43:37;;;;;;;4.75;2.33;;;;;;;-7.40;70.35;99880.25;4978780;28;20050;-86
2022/01/19 01:46:13;;;;;;;3.85;2.30;;;;;;;-7.29;70.25;99883.59;4995960;28;20393;-86
2022/01/19 01:48:45;;;;;;;4.30;2.63;;;;;;;-7.28;70.08;99882.84;5013871;28;20053;-87
2022/01/19 01:54:00;;;;;;;5.07;2.15;;;;;;;-7.27;70.03;99875.34;4982124;28;20077;-82
2022/01/19 01:56:27;;;;;;;7.25;2.83;;;;;;;-7.26;70.00;99881.31;4999655;28;20045;-83
2022/01/19 01:59:01;;;;;;;5.38;2.47;;;;;;;-7.41;70.17;99858.22;4999614;28;20075;-82
2022/01/19 02:01:28;;;;;;;4.30;2.38;;;;;;;-7.37;70.45;99877.97;5017198;28;20476;-84
2022/01/19 02:03:57;;;;;;;4.97;2.28;;;;;;;-7.45;70.30;99886.66;4999955;28;20092;-82
2022/01/19 02:09:15;;;;;;;5.32;2.60;;;;;;;-7.57;71.09;99901.88;4999490;28;20085;-85
2022/01/19 02:22:53;;;;;;;5.55;2.10;;;;;;;-7.80;70.21;99864.63;5000575;28;20160;-83
2022/01/19 02:25:26;;;;;;;2.97;2.30;;;;;;;-7.48;70.67;99900.00;4974171;28;20496;-85
2022/01/19 02:41:45;;;;;;;5.50;2.55;;;;;;;-7.46;69.87;99903.56;5017161;28;20061;-84
2022/01/19 02:44:26;;;;;;;5.63;2.60;;;;;;;-7.45;70.10;99914.59;5017275;28;20116;-84
2022/01/19 02:49:39;;;;;;;4.85;2.80;;;;;;;-7.50;69.74;99915.91;5011336;28;20117;-80
2022/01/19 02:52:06;;;;;;;6.43;3.03;;;;;;;-7.51;69.91;99916.66;5028441;28;20070;-79
2022/01/19 02:54:34;;;;;;;5.28;3.00;;;;;;;-7.51;70.11;99920.06;5016748;28;20054;-79
2022/01/19 02:57:02;;;;;;;12.75;4.00;;;;;;;-7.56;69.91;99926.47;5007176;28;20050;-79
2022/01/19 03:10:35;;;;;;;8.02;4.07;;;;;;;-7.81;69.84;99911.00;5018375;28;20061;-80
2022/01/19 03:13:03;;;;;;;12.05;4.80;;;;;;;-7.82;69.81;99915.22;5003761;28;20053;-81
2022/01/19 03:15:30;;;;;;;11.40;4.90;;;;;;;-7.73;70.34;99934.44;5001350;28;20398;-84
2022/01/19 03:17:59;;;;;;;10.63;4.30;;;;;;;-7.71;70.08;99921.09;5015657;28;20100;-84
2022/01/19 03:20:28;;;;;;;9.82;4.50;;;;;;;-7.69;70.09;99934.78;5015918;28;20084;-86
2022/01/19 03:23:03;;;;;;;9.57;4.73;;;;;;;-7.70;70.09;99924.50;5015421;28;20141;-82
2022/01/19 03:25:37;;;;;;;6.93;3.60;;;;;;;-7.58;69.86;99935.59;4981817;28;20148;-83
2022/01/19 03:28:05;;;;;;;8.55;3.88;;;;;;;-7.63;69.62;99914.09;4997701;28;20053;-83
2022/01/19 03:30:33;;;;;;;7.47;3.85;;;;;;;-7.55;69.88;99927.34;4998089;28;20053;-83
2022/01/19 03:33:00;;;;;;;5.07;3.58;;;;;;;-7.77;69.28;99880.03;4998291;28;20458;-81
2022/01/19 03:35:28;;;;;;;9.45;3.95;;;;;;;-7.76;70.30;99886.03;4999251;28;20076;-82
2022/01/19 03:37:56;;;;;;;8.07;3.63;;;;;;;-7.53;69.79;99924.13;5017246;28;20062;-82
2022/01/19 03:40:23;;;;;;;3.97;2.90;;;;;;;-7.63;69.64;99914.97;5016190;28;20054;-86
2022/01/19 03:42:50;;;;;;;6.55;2.90;;;;;;;-7.60;70.06;99923.56;4998382;28;20105;-83
2022/01/19 03:45:26;;;;;;;5.32;2.88;;;;;;;-7.56;69.70;99934.06;4994954;28;20054;-84
2022/01/19 03:48:07;;;;;;;5.40;3.00;;;;;;;-7.54;69.98;99932.53;4998105;28;20070;-87
2022/01/19 03:50:37;;;;;;;7.63;3.50;;;;;;;-7.53;69.78;99921.59;4998570;28;20108;-87
2022/01/19 03:53:04;;;;;;;21.58;7.70;;;;;;;-7.49;69.63;99926.16;4998046;28;20068;-83
2022/01/19 03:55:31;;;;;;;9.00;4.22;;;;;;;-7.42;70.33;99923.31;5016889;28;20053;-82
2022/01/19 03:57:58;;;;;;;5.70;3.08;;;;;;;-7.29;69.62;99942.91;4997755;28;20459;-85
2022/01/19 04:00:26;;;;;;;6.40;3.05;;;;;;;-7.34;69.60;99934.03;5000420;28;20085;-83
2022/01/19 04:02:52;;;;;;;6.97;3.45;;;;;;;-7.22;69.46;99941.69;5003364;28;20134;-84
2022/01/19 04:05:24;;;;;;;9.90;4.25;;;;;;;-7.19;69.44;99934.28;5022229;28;20066;-82
2022/01/19 04:07:51;;;;;;;7.07;3.65;;;;;;;-7.33;69.46;99909.56;4998849;28;20112;-87
2022/01/19 04:10:18;;;;;;;9.27;4.00;;;;;;;-7.09;69.85;99951.13;5001513;28;20527;-82
2022/01/19 04:12:56;;;;;;;9.43;3.75;;;;;;;-7.10;69.68;99940.03;4998683;28;20542;-82
2022/01/19 04:15:24;;;;;;;6.25;3.33;;;;;;;-7.09;69.71;99948.56;4996992;28;20144;-86
2022/01/19 04:17:53;;;;;;;8.38;3.55;;;;;;;-7.13;69.73;99952.53;5014511;28;20133;-85
2022/01/19 04:20:24;;;;;;;;;;;;;;;-7.25;70.07;99959.22;4979627;28;20053;-82
2022/01/19 04:22:56;;;;;;;6.22;3.03;;;;;;;-7.35;70.12;99944.09;4999791;28;19965;-84
2022/01/19 04:25:23;;;;;;;10.10;4.13;;;;;;;-7.42;69.70;99924.94;4993762;28;20054;-83
2022/01/19 04:27:50;;;;;;;4.68;2.97;;;;;;;-7.26;69.58;99948.19;5013894;28;20523;-83
2022/01/19 04:30:17;;;;;;;7.25;4.05;;;;;;;-7.29;69.67;99947.06;4996928;28;20046;-86
2022/01/19 04:35:30;;;;;;;6.47;3.17;;;;;;;-7.45;70.29;99935.75;4996870;28;20046;-82
2022/01/19 04:38:35;;;;;;;7.68;3.20;;;;;;;-7.48;70.16;99937.19;4997070;28;20054;-82
2022/01/19 04:54:10;;;;;;;10.52;3.75;;;;;;;-7.42;70.45;99950.31;5014221;28;20049;-83
2022/01/19 05:01:34;;;;;;;8.88;3.13;;;;;;;-7.61;70.37;99943.00;4995556;28;20405;-80
2022/01/19 05:03:43;;;;;;;9.80;3.60;;;;;;;-7.72;70.68;99931.13;5034493;28;20144;-86
2022/01/19 05:06:21;;;;;;;9.52;4.50;;;;;;;-7.86;71.07;99930.09;5034041;28;20053;-85
2022/01/19 05:09:21;;;;;;;9.02;4.00;;;;;;;-8.23;70.83;99892.63;5017813;28;20064;-80
2022/01/19 05:14:34;;;;;;;6.43;3.25;;;;;;;-7.99;71.56;99940.94;5001460;28;20056;-84
2022/01/19 05:17:02;;;;;;;7.50;4.28;;;;;;;-8.16;71.89;99909.19;5014484;28;20492;-81
2022/01/19 05:19:29;;;;;;;9.63;3.92;;;;;;;-8.05;72.07;99938.78;4995857;28;20104;-83
2022/01/19 05:21:56;;;;;;;9.57;4.47;;;;;;;-8.06;71.57;99933.63;4996359;28;20089;-81
2022/01/19 05:24:45;;;;;;;8.13;4.15;;;;;;;-8.12;71.62;99928.94;5012645;28;20057;-84
2022/01/19 05:27:48;;;;;;;9.57;4.13;;;;;;;-8.19;71.81;99921.63;4952298;29;20103;-85
2022/01/19 05:30:17;;;;;;;8.68;4.35;;;;;;;-8.37;72.22;99897.38;4983947;28;20053;-83
2022/01/19 05:32:46;;;;;;;15.00;5.47;;;;;;;-8.27;71.98;99926.09;4979904;28;20515;-83
2022/01/19 05:35:13;;;;;;;15.50;6.38;;;;;;;-8.27;72.75;99926.09;4997383;28;20140;-83
2022/01/19 05:37:54;;;;;;;14.95;6.80;;;;;;;-8.34;72.86;99910.31;4996103;28;20054;-88
2022/01/19 05:40:46;;;;;;;20.20;8.00;;;;;;;-8.21;72.67;99923.16;4995701;28;20054;-85
2022/01/19 05:43:14;;;;;;;20.45;8.05;;;;;;;-8.17;72.96;99920.09;4995744;28;20046;-83
2022/01/19 05:45:41;;;;;;;20.13;7.93;;;;;;;-8.30;72.61;99900.53;5014327;28;20112;-82
2022/01/19 05:48:14;;;;;;;19.58;7.55;;;;;;;-8.19;72.37;99908.97;4985477;28;20049;-85
2022/01/19 05:50:46;;;;;;;17.92;7.68;;;;;;;-8.07;72.47;99920.03;4997724;28;20053;-80
2022/01/19 05:53:16;;;;;;;21.17;8.48;;;;;;;-8.06;72.76;99911.69;4996170;28;20141;-83
2022/01/19 05:55:44;;;;;;;21.85;8.77;;;;;;;-7.96;72.44;99925.06;4980956;28;20462;-84
2022/01/19 05:58:13;;;;;;;23.10;9.77;;;;;;;-7.90;72.47;99926.41;4980439;28;20077;-87
2022/01/19 06:00:41;;;;;;;22.50;9.70;;;;;;;-7.85;72.33;99917.53;4986384;28;20074;-88
2022/01/19 06:03:10;;;;;;;24.53;9.13;;;;;;;-7.84;72.76;99898.13;4976107;28;20054;-82
2022/01/19 06:05:57;;;;;;;22.30;10.15;;;;;;;-7.62;71.94;99931.06;4993169;28;20101;-86
2022/01/19 06:08:48;;;;;;;26.60;10.02;;;;;;;-7.60;72.05;99921.91;4977292;28;20062;-83
2022/01/19 06:11:16;;;;;;;22.08;8.63;;;;;;;-7.60;72.01;99915.97;4993311;28;20145;-81
2022/01/19 06:13:46;;;;;;;20.35;9.15;;;;;;;-7.59;71.96;99907.56;4976190;28;20058;-81
2022/01/19 06:16:13;;;;;;;21.17;9.55;;;;;;;-7.49;71.81;99916.00;4976073;28;20141;-86
2022/01/19 06:18:42;;;;;;;20.92;7.88;;;;;;;-7.36;71.70;99906.78;4976422;28;20058;-82
2022/01/19 06:21:13;;;;;;;16.95;6.40;;;;;;;-7.31;71.77;99902.91;4976936;28;20394;-83
2022/01/19 06:23:46;;;;;;;14.60;6.30;;;;;;;-7.26;71.46;99894.00;4977099;28;20081;-83
2022/01/19 06:26:16;;;;;;;9.82;5.53;;;;;;;-7.11;71.14;99902.75;4977070;28;20072;-81
2022/01/19 06:28:42;;;;;;;10.38;5.50;;;;;;;-7.07;70.65;99898.78;4999220;28;20118;-82
2022/01/19 06:31:10;;;;;;;8.77;5.00;;;;;;;-6.91;70.58;99916.03;4978863;28;20519;-81
2022/01/19 06:33:38;;;;;;;13.13;5.72;;;;;;;-6.89;70.49;99910.28;4976679;28;20460;-82
2022/01/19 06:36:06;;;;;;;11.07;5.40;;;;;;;-6.87;70.27;99901.09;4975899;28;20511;-84
2022/01/19 06:38:36;;;;;;;11.10;4.70;;;;;;;-6.91;69.99;99903.31;4977172;28;20062;-83
2022/01/19 06:41:08;;;;;;;14.75;5.82;;;;;;;-6.89;70.37;99897.56;4965880;28;20054;-86
2022/01/19 06:43:37;;;;;;;11.80;4.85;;;;;;;-6.73;70.25;99907.22;4980714;28;20057;-82
2022/01/19 06:46:05;;;;;;;9.18;4.95;;;;;;;-6.82;69.38;99884.56;4963775;28;20085;-81
2022/01/19 06:48:32;;;;;;;14.75;5.38;;;;;;;-6.72;70.02;99903.00;4979182;28;20149;-84
2022/01/19 06:51:03;;;;;;;8.18;4.45;;;;;;;-6.66;69.71;99888.19;4979569;28;20081;-84
2022/01/19 06:53:40;;;;;;;12.05;4.88;;;;;;;-6.61;69.13;99897.03;4980566;28;20053;-82
2022/01/19 06:56:19;;;;;;;11.30;4.70;;;;;;;-6.65;69.31;99884.88;4983875;28;20496;-82
2022/01/19 06:58:48;;;;;;;11.20;4.80;;;;;;;-6.59;69.25;99898.03;4982186;28;20151;-83
2022/01/19 07:01:23;;;;;;;9.63;4.32;;;;;;;-6.68;69.53;99903.34;4982489;28;20520;-82
2022/01/19 07:04:04;;;;;;;10.20;5.35;;;;;;;-6.72;69.30;99883.56;4964517;28;20412;-85
2022/01/19 07:06:33;;;;;;;12.30;5.15;;;;;;;-6.66;69.10;99903.44;4964690;28;20487;-83
2022/01/19 07:09:19;;;;;;;12.35;5.60;;;;;;;-6.74;69.38;99892.72;4980771;28;20058;-82
2022/01/19 07:11:55;;;;;;;14.10;5.55;;;;;;;-6.56;69.06;99895.72;4982876;28;20058;-81
2022/01/19 07:14:22;;;;;;;12.27;5.63;;;;;;;-6.59;68.96;99892.94;4982516;28;20050;-85
2022/01/19 07:16:53;;;;;;;16.70;5.85;;;;;;;-6.53;69.00;99907.75;4980958;28;20096;-85
2022/01/19 07:19:23;;;;;;;12.18;5.72;;;;;;;-6.45;68.67;99909.19;4996678;28;20522;-87
2022/01/19 07:21:50;;;;;;;15.57;6.43;;;;;;;-6.41;68.42;99908.59;4979585;28;20247;-83
2022/01/19 07:24:17;;;;;;;15.48;6.20;;;;;;;-6.56;68.18;99889.72;4978854;28;20058;-82
2022/01/19 07:26:44;;;;;;;11.40;5.72;;;;;;;-6.61;68.64;99899.56;4996624;28;20504;-81
2022/01/19 07:29:14;;;;;;;14.93;7.07;;;;;;;-6.60;68.53;99903.91;4979827;28;20058;-82
2022/01/19 07:31:46;;;;;;;18.67;6.78;;;;;;;-6.60;68.50;99904.78;4979976;28;20085;-86
2022/01/19 07:34:13;;;;;;;16.77;6.65;;;;;;;-6.46;68.01;99899.78;4967649;28;20105;-83
2022/01/19 07:36:42;;;;;;;23.65;6.80;;;;;;;-6.49;67.99;99891.94;4985360;28;20054;-84
2022/01/19 07:39:14;;;;;;;12.10;6.80;;;;;;;-6.53;67.67;99885.75;5002852;28;20077;-83
2022/01/19 07:41:41;;;;;;;14.40;6.73;;;;;;;-6.52;68.10;99895.13;4984109;28;20300;-84
2022/01/19 07:44:27;;;;;;;15.60;6.13;;;;;;;-6.59;68.53;99867.53;4987809;28;20289;-79
2022/01/19 07:47:23;;;;;;;22.10;7.93;;;;;;;-6.46;68.30;99882.88;4957001;28;20602;-86
2022/01/19 07:50:23;;;;;;;15.50;7.23;;;;;;;-6.46;67.87;99882.00;4986434;28;20066;-81
2022/01/19 07:53:14;;;;;;;14.65;7.40;;;;;;;-6.48;67.88;99875.91;4991299;28;20297;-82
2022/01/19 07:55:49;;;;;;;20.30;7.10;;;;;;;-6.46;67.62;99876.91;4981484;28;20078;-84
2022/01/19 07:58:28;;;;;;;15.35;7.50;;;;;;;-6.64;67.96;99839.25;4977099;28;20066;-81
2022/01/19 08:01:09;;;;;;;19.67;8.55;;;;;;;-6.46;68.03;99854.03;4978452;28;20105;-83
2022/01/19 08:03:46;;;;;;;13.93;6.85;;;;;;;-6.54;67.97;99839.91;4965019;28;20460;-84
2022/01/19 08:06:22;;;;;;;14.95;6.97;;;;;;;-6.35;67.49;99862.41;4962944;28;20054;-84
2022/01/19 08:08:52;;;;;;;21.13;7.32;;;;;;;-6.48;67.66;99817.44;4978954;28;20452;-83
2022/01/19 08:11:19;;;;;;;14.55;7.53;;;;;;;-6.36;67.26;99833.56;4999598;28;20081;-83
2022/01/19 08:13:54;;;;;;;18.45;7.65;;;;;;;-6.31;67.42;99851.69;4979777;28;20054;-86
2022/01/19 08:16:23;;;;;;;19.83;7.30;;;;;;;-6.40;67.37;99832.47;4978050;28;20453;-84
2022/01/19 08:18:51;;;;;;;16.58;7.97;;;;;;;-6.19;67.19;99845.78;4977802;28;20161;-85
2022/01/19 08:21:20;;;;;;;19.25;8.07;;;;;;;-6.00;66.80;99853.03;4994727;28;20145;-83
2022/01/19 08:23:56;;;;;;;15.90;7.38;;;;;;;-5.94;66.27;99864.41;4987731;28;20108;-84
2022/01/19 08:26:23;;;;;;;16.30;7.22;;;;;;;-5.97;66.36;99855.78;4979171;28;20064;-83
2022/01/19 08:28:54;;;;;;;13.68;6.55;;;;;;;-6.06;66.85;99839.88;4963555;28;20567;-87
2022/01/19 08:31:21;;;;;;;14.95;6.50;;;;;;;-5.95;66.58;99848.25;4978039;28;20065;-86
2022/01/19 08:34:17;;;;;;;16.08;6.75;;;;;;;-5.84;66.49;99848.94;4993977;28;20054;-85
2022/01/19 08:37:21;;;;;;;15.07;6.28;;;;;;;-5.89;66.46;99840.09;4951745;29;20075;-85
2022/01/19 08:40:13;;;;;;;14.40;6.93;;;;;;;-5.87;66.40;99843.63;4975487;28;20061;-83
2022/01/19 08:42:53;;;;;;;24.00;10.75;;;;;;;-6.15;66.33;99802.75;4979375;28;20054;-88
2022/01/19 08:45:21;;;;;;;15.02;7.60;;;;;;;-5.90;66.07;99840.91;4982103;28;20124;-88
2022/01/19 08:47:49;;;;;;;15.80;6.93;;;;;;;-5.78;66.01;99847.69;4981487;28;20085;-84
2022/01/19 08:50:24;;;;;;;17.55;6.32;;;;;;;-5.77;66.38;99846.03;4961368;28;20081;-84
2022/01/19 08:53:02;;;;;;;15.20;6.95;;;;;;;-5.75;65.84;99847.03;4979634;28;20113;-84
2022/01/19 08:55:38;;;;;;;13.60;6.63;;;;;;;-5.72;65.99;99848.88;4978036;28;20077;-89
2022/01/19 08:58:09;;;;;;;13.45;6.28;;;;;;;-5.74;66.21;99852.97;4994551;28;20077;-83
2022/01/19 09:00:37;;;;;;;14.90;6.82;;;;;;;-5.67;65.94;99848.44;4993983;28;20058;-80
2022/01/19 09:03:07;;;;;;;17.70;6.82;;;;;;;-5.61;65.68;99836.13;4976103;28;20051;-83
2022/01/19 09:05:34;;;;;;;15.10;6.95;;;;;;;-5.63;65.36;99824.94;4975746;28;20056;-85
2022/01/19 09:08:01;;;;;;;16.98;6.82;;;;;;;-5.42;65.44;99837.31;4993408;28;20521;-83
2022/01/19 09:10:29;;;;;;;11.75;6.22;;;;;;;-5.33;65.15;99824.31;4994006;28;20058;-82
2022/01/19 09:13:02;;;;;;;16.50;7.07;;;;;;;-5.39;64.90;99805.31;5000457;28;20046;-83
2022/01/19 09:15:30;;;;;;;14.77;6.47;;;;;;;-5.31;64.75;99822.75;4995255;28;20054;-82
2022/01/19 09:17:57;;;;;;;15.93;6.75;;;;;;;-5.22;64.73;99823.38;4993534;28;20464;-83
2022/01/19 09:20:24;;;;;;;14.38;5.70;;;;;;;-5.17;64.44;99815.22;4979115;28;20109;-83
2022/01/19 09:22:52;;;;;;;18.13;7.20;;;;;;;-5.13;64.33;99807.81;4977126;28;20660;-86
2022/01/19 09:25:21;;;;;;;14.93;6.63;;;;;;;-5.11;64.07;99794.38;4993599;28;20115;-83
2022/01/19 09:27:48;;;;;;;15.00;6.90;;;;;;;-4.90;63.78;99815.25;4993898;28;20058;-85
2022/01/19 09:30:19;;;;;;;16.17;6.05;;;;;;;-4.92;63.38;99814.28;4993226;28;20060;-84
2022/01/19 09:32:54;;;;;;;16.40;7.07;;;;;;;-4.90;63.60;99805.06;4993679;28;20085;-83
2022/01/19 09:35:25;;;;;;;15.35;7.05;;;;;;;-4.86;63.64;99801.03;4977730;28;20441;-91
2022/01/19 09:37:55;;;;;;;16.88;6.80;;;;;;;-4.85;63.38;99803.69;5000918;28;20500;-83
2022/01/19 09:40:29;;;;;;;15.40;6.10;;;;;;;-4.96;63.19;99795.34;4981554;28;20054;-87
2022/01/19 09:43:09;;;;;;;13.90;6.68;;;;;;;-5.37;63.49;99767.22;4982036;28;20058;-84
2022/01/19 09:45:36;;;;;;;13.73;6.07;;;;;;;-5.27;63.89;99787.41;4978209;28;20054;-87
2022/01/19 09:48:05;;;;;;;12.23;6.75;;;;;;;-5.21;63.80;99802.19;4979823;28;20394;-85
2022/01/19 09:50:33;;;;;;;16.17;6.22;;;;;;;-5.27;63.68;99812.88;4998337;28;20057;-85
2022/01/19 09:53:05;;;;;;;13.80;5.85;;;;;;;-5.28;63.94;99795.81;4980503;28;20413;-83
2022/01/19 09:55:35;;;;;;;15.52;6.32;;;;;;;-5.11;63.90;99801.16;4998087;28;20174;-83
2022/01/19 09:58:02;;;;;;;12.57;6.43;;;;;;;-5.41;63.82;99768.69;4996442;28;20556;-83
2022/01/19 10:00:30;;;;;;;14.95;6.32;;;;;;;-5.25;64.18;99813.88;5005014;28;20125;-83
2022/01/19 10:03:14;;;;;;;35.47;12.82;;;;;;;-5.35;63.66;99783.50;4998409;28;20050;-83
2022/01/19 10:05:52;;;;;;;21.13;8.40;;;;;;;-5.11;63.81;99799.47;5014267;28;20058;-85
2022/01/19 10:08:30;;;;;;;15.75;6.85;;;;;;;-4.95;63.71;99814.06;5016610;28;20603;-84
2022/01/19 10:17:08;;;;;;;14.18;5.65;;;;;;;-5.01;63.39;99794.19;5019193;28;20054;-87
2022/01/19 10:19:45;;;;;;;9.70;5.00;;;;;;;-4.85;63.40;99813.88;5020157;28;20062;-86
2022/01/19 10:22:16;;;;;;;11.60;4.95;;;;;;;-4.84;63.11;99805.47;5016844;28;20153;-84
2022/01/19 10:25:01;;;;;;;8.32;4.40;;;;;;;-4.82;63.02;99814.09;5021740;28;20058;-85
2022/01/19 10:27:38;;;;;;;10.05;4.75;;;;;;;-4.82;62.77;99785.13;4985252;28;20053;-83
2022/01/19 10:30:05;;;;;;;10.85;4.70;;;;;;;-4.59;62.48;99806.97;4999046;28;20145;-86
2022/01/19 10:32:55;;;;;;;17.05;5.90;;;;;;;-4.59;62.28;99810.41;5018664;28;20061;-86
2022/01/19 10:35:22;;;;;;;11.68;4.65;;;;;;;-4.65;62.41;99801.50;5017292;28;20109;-84
2022/01/19 10:38:08;;;;;;;9.23;3.97;;;;;;;-4.84;62.56;99802.00;5017150;28;20050;-85
2022/01/19 10:40:37;;;;;;;9.05;4.50;;;;;;;-4.84;62.39;99820.75;5020718;28;20498;-85
2022/01/19 10:43:25;;;;;;;12.02;4.53;;;;;;;-4.84;62.59;99812.19;5010172;28;20080;-85
2022/01/19 10:45:54;;;;;;;10.75;4.38;;;;;;;-4.87;62.47;99812.00;5018401;28;20050;-83
2022/01/19 10:48:55;;;;;;;10.48;4.88;;;;;;;-5.21;62.74;99812.38;5023804;28;20112;-88
2022/01/19 10:51:33;;;;;;;9.98;4.43;;;;;;;-5.57;63.06;99784.63;5004073;28;20169;-87
2022/01/19 10:54:09;;;;;;;12.63;4.90;;;;;;;-5.53;63.87;99806.06;5021860;28;20090;-87
2022/01/19 10:56:37;;;;;;;14.82;5.20;;;;;;;-5.50;63.93;99801.19;5020893;28;20108;-84
2022/01/19 10:59:10;;;;;;;13.57;5.22;;;;;;;-5.35;63.27;99794.56;5020911;28;20197;-84
2022/01/19 11:01:47;;;;;;;12.85;5.43;;;;;;;-5.12;62.91;99791.72;5004231;28;20058;-84
2022/01/19 11:04:38;;;;;;;8.80;4.43;;;;;;;-5.37;62.47;99745.19;4980882;28;20098;-85
2022/01/19 11:07:15;;;;;;;7.40;4.03;;;;;;;-5.11;62.71;99775.66;5009534;28;20054;-83
2022/01/19 11:09:46;;;;;;;9.80;4.80;;;;;;;-5.12;62.87;99773.88;5014503;28;20054;-82
2022/01/19 11:12:18;;;;;;;8.15;4.32;;;;;;;-5.05;62.64;99783.72;4979378;28;20452;-83
2022/01/19 11:14:45;;;;;;;9.43;4.32;;;;;;;-4.99;62.14;99759.50;4992603;28;20066;-83
2022/01/19 11:17:33;;;;;;;9.82;4.47;;;;;;;-4.91;61.63;99757.41;5008066;28;20109;-86
2022/01/19 11:20:07;;;;;;;8.60;4.60;;;;;;;-4.74;61.83;99774.63;4999385;28;20066;-84
2022/01/19 11:23:15;;;;;;;9.90;4.45;;;;;;;-4.53;61.50;99758.94;4997582;28;20050;-82
2022/01/19 11:26:02;;;;;;;12.90;5.38;;;;;;;-4.55;61.07;99750.31;4995698;28;20153;-83
2022/01/19 11:28:34;;;;;;;13.50;5.07;;;;;;;-4.76;61.51;99750.72;4994849;28;20054;-84
2022/01/19 11:31:08;;;;;;;12.75;5.55;;;;;;;-4.61;62.14;99760.13;4979328;28;20054;-83
2022/01/19 11:33:51;;;;;;;13.23;5.82;;;;;;;-4.63;61.32;99760.00;4982112;28;20121;-87
2022/01/19 11:36:29;;;;;;;13.10;6.47;;;;;;;-4.41;61.47;99757.13;4987441;28;20054;-83
2022/01/19 11:39:05;;;;;;;18.33;5.75;;;;;;;-4.22;60.96;99755.69;5000447;28;20575;-85
2022/01/19 11:41:39;;;;;;;10.20;5.03;;;;;;;-4.15;61.18;99753.59;4995689;28;20058;-83
2022/01/19 11:44:31;;;;;;;15.27;5.20;;;;;;;-4.13;60.60;99736.72;4996239;28;20057;-85
2022/01/19 11:47:10;;;;;;;13.45;4.95;;;;;;;-4.18;60.75;99742.31;4985852;28;20081;-82
2022/01/19 11:49:52;;;;;;;10.82;4.70;;;;;;;-4.31;61.01;99740.69;4996315;28;20060;-83
2022/01/19 11:52:23;;;;;;;11.18;4.72;;;;;;;-4.39;61.36;99747.00;4991777;28;20091;-82
2022/01/19 11:55:10;;;;;;;10.93;4.15;;;;;;;-4.35;61.21;99749.81;4995807;28;20092;-82
2022/01/19 11:57:38;;;;;;;9.80;4.53;;;;;;;-4.43;60.97;99740.84;4974781;28;20042;-82
2022/01/19 12:00:32;;;;;;;9.63;4.63;;;;;;;-4.55;60.87;99710.38;4971889;28;20472;-83
2022/01/19 12:03:23;;;;;;;11.18;4.60;;;;;;;-4.42;61.06;99749.38;4995684;28;20058;-81
2022/01/19 12:06:29;;;;;;;10.20;4.53;;;;;;;-4.61;61.41;99738.03;4995338;28;20570;-81
2022/01/19 12:08:57;;;;;;;11.23;4.53;;;;;;;-4.57;61.94;99744.22;4995313;28;20058;-83
2022/01/19 12:11:26;;;;;;;10.55;5.10;;;;;;;-4.64;61.47;99714.94;4982436;28;20062;-81
2022/01/19 12:19:10;;;;;;;11.18;4.75;;;;;;;-4.68;61.62;99722.28;4995317;28;20404;-83
2022/01/19 12:22:11;;;;;;;10.68;4.60;;;;;;;-4.71;61.60;99717.00;4994749;28;20093;-81
2022/01/19 12:24:41;;;;;;;11.00;4.65;;;;;;;-4.74;61.58;99723.66;4987839;28;20077;-81
2022/01/19 12:27:30;;;;;;;10.05;5.00;;;;;;;-4.82;61.89;99724.88;4995095;28;20466;-83
2022/01/19 12:30:04;;;;;;;9.75;4.43;;;;;;;-4.84;61.72;99721.34;4998578;28;20058;-78
2022/01/19 12:32:35;;;;;;;11.98;5.25;;;;;;;-4.86;61.68;99722.94;5013398;28;20074;-80
2022/01/19 12:35:05;;;;;;;9.27;4.60;;;;;;;-4.91;61.88;99705.56;5009262;28;20117;-80
2022/01/19 12:37:43;;;;;;;10.68;4.60;;;;;;;-4.94;61.65;99708.81;5005477;28;20575;-81
2022/01/19 12:40:21;;;;;;;11.75;5.10;;;;;;;-5.06;61.75;99691.09;4978472;28;20065;-83
2022/01/19 12:43:11;;;;;;;11.18;5.30;;;;;;;-4.88;62.17;99715.94;4995248;28;20058;-80
2022/01/19 12:45:45;;;;;;;12.02;5.25;;;;;;;-4.91;61.95;99719.19;4994940;28;20117;-79
2022/01/19 12:48:32;;;;;;;14.43;5.22;;;;;;;-4.90;62.05;99712.41;4994885;28;20062;-82
2022/01/19 12:50:59;;;;;;;10.48;5.20;;;;;;;-4.94;62.05;99708.81;4976769;28;20572;-80
2022/01/19 12:53:26;;;;;;;10.35;4.70;;;;;;;-4.89;62.29;99721.84;4994331;28;20060;-82
2022/01/19 12:56:03;;;;;;;11.38;5.28;;;;;;;-4.90;61.97;99709.88;4992570;28;20050;-82
2022/01/19 12:58:34;;;;;;;14.35;5.80;;;;;;;-4.85;61.73;99709.38;4976121;28;20545;-80
2022/01/19 13:01:10;;;;;;;11.50;5.35;;;;;;;-4.81;62.05;99713.00;5006015;28;20058;-81
2022/01/19 13:03:41;;;;;;;12.73;4.90;;;;;;;-4.85;61.71;99711.06;5014288;28;20073;-78
2022/01/19 13:06:10;;;;;;;11.18;5.30;;;;;;;-4.93;62.03;99715.66;5017577;28;20082;-80
2022/01/19 13:08:44;;;;;;;14.40;4.93;;;;;;;-5.12;62.24;99693.25;4979629;28;20060;-78
2022/01/19 13:11:22;;;;;;;11.07;5.05;;;;;;;-5.18;62.25;99686.13;4995740;28;20112;-80
2022/01/19 13:13:58;;;;;;;8.75;4.75;;;;;;;-5.12;62.62;99702.56;5012851;28;20116;-82
2022/01/19 13:16:32;;;;;;;13.30;5.03;;;;;;;-5.14;62.91;99717.78;5003621;28;20064;-81